sensor_id;sensor_type;location;lat;lon;timestamp;temperature;humidity
55830;DHT22;41759;53.330;6.002;2023-11-18T00:01:24;4.00;99.90
55830;DHT22;41759;53.330;6.002;2023-11-18T00:03:53;4.00;99.90
55830;DHT22;41759;53.330;6.002;2023-11-18T00:06:19;4.10;99.90
55830;DHT22;41759;53.330;6.002;2023-11-18T00:08:45;4.00;99.90
55830;DHT22;41759;53.330;6.002;2023-11-18T00:11:20;4.10;99.90
55830;DHT22;41759;53.330;6.002;2023-11-18T00:13:46;4.00;99.90
55830;DHT22;41759;53.330;6.002;2023-11-18T00:16:12;4.10;99.90
55830;DHT22;41759;53.330;6.002;2023-11-18T00:18:39;4.10;99.90
55830;DHT22;41759;53.330;6.002;2023-11-18T00:21:06;4.10;99.90
55830;DHT22;41759;53.330;6.002;2023-11-18T00:23:33;4.00;99.90
55830;DHT22;41759;53.330;6.002;2023-11-18T00:25:59;4.00;99.90
55830;DHT22;41759;53.330;6.002;2023-11-18T00:28:25;4.10;99.90
55830;DHT22;41759;53.330;6.002;2023-11-18T00:30:51;4.10;99.90
55830;DHT22;41759;53.330;6.002;2023-11-18T00:33:17;4.10;99.90
55830;DHT22;41759;53.330;6.002;2023-11-18T00:35:43;4.20;99.90
55830;DHT22;41759;53.330;6.002;2023-11-18T00:38:11;4.00;99.90
55830;DHT22;41759;53.330;6.002;2023-11-18T00:40:37;4.10;99.90
55830;DHT22;41759;53.330;6.002;2023-11-18T00:43:03;4.10;99.90
55830;DHT22;41759;53.330;6.002;2023-11-18T00:45:29;4.10;99.90
55830;DHT22;41759;53.330;6.002;2023-11-18T00:47:55;4.10;99.90
55830;DHT22;41759;53.330;6.002;2023-11-18T00:50:21;4.10;99.90
55830;DHT22;41759;53.330;6.002;2023-11-18T00:52:46;4.10;99.90
55830;DHT22;41759;53.330;6.002;2023-11-18T00:55:15;3.60;99.90
55830;DHT22;41759;53.330;6.002;2023-11-18T00:57:44;4.20;99.90
55830;DHT22;41759;53.330;6.002;2023-11-18T01:00:14;2.70;99.90
55830;DHT22;41759;53.330;6.002;2023-11-18T01:02:44;4.10;99.90
55830;DHT22;41759;53.330;6.002;2023-11-18T01:05:12;4.10;99.90
55830;DHT22;41759;53.330;6.002;2023-11-18T01:07:39;4.00;99.90
55830;DHT22;41759;53.330;6.002;2023-11-18T01:10:09;4.00;99.90
55830;DHT22;41759;53.330;6.002;2023-11-18T01:12:36;4.00;99.90
55830;DHT22;41759;53.330;6.002;2023-11-18T01:15:02;3.90;99.90
55830;DHT22;41759;53.330;6.002;2023-11-18T01:17:29;4.90;99.90
55830;DHT22;41759;53.330;6.002;2023-11-18T01:19:55;3.90;99.90
55830;DHT22;41759;53.330;6.002;2023-11-18T01:22:21;3.90;99.90
55830;DHT22;41759;53.330;6.002;2023-11-18T01:24:47;3.90;99.90
55830;DHT22;41759;53.330;6.002;2023-11-18T01:27:16;4.60;99.90
55830;DHT22;41759;53.330;6.002;2023-11-18T01:29:43;3.90;99.90
55830;DHT22;41759;53.330;6.002;2023-11-18T01:32:10;3.90;99.90
55830;DHT22;41759;53.330;6.002;2023-11-18T01:34:37;3.80;99.90
55830;DHT22;41759;53.330;6.002;2023-11-18T01:37:06;3.90;99.90
55830;DHT22;41759;53.330;6.002;2023-11-18T01:39:33;3.80;99.90
55830;DHT22;41759;53.330;6.002;2023-11-18T01:41:59;3.80;99.90
55830;DHT22;41759;53.330;6.002;2023-11-18T01:44:26;3.90;99.90
55830;DHT22;41759;53.330;6.002;2023-11-18T01:46:55;3.80;99.90
55830;DHT22;41759;53.330;6.002;2023-11-18T01:49:21;3.90;99.90
55830;DHT22;41759;53.330;6.002;2023-11-18T01:51:50;3.90;99.90
55830;DHT22;41759;53.330;6.002;2023-11-18T01:54:19;3.90;99.90
55830;DHT22;41759;53.330;6.002;2023-11-18T01:56:48;4.30;99.90
55830;DHT22;41759;53.330;6.002;2023-11-18T01:59:15;3.90;99.90
55830;DHT22;41759;53.330;6.002;2023-11-18T02:01:51;3.90;99.90
55830;DHT22;41759;53.330;6.002;2023-11-18T02:04:19;3.90;99.90
55830;DHT22;41759;53.330;6.002;2023-11-18T02:06:47;4.00;99.90
55830;DHT22;41759;53.330;6.002;2023-11-18T02:09:17;4.20;99.90
55830;DHT22;41759;53.330;6.002;2023-11-18T02:14:39;4.00;99.90
55830;DHT22;41759;53.330;6.002;2023-11-18T02:17:08;4.00;99.90
55830;DHT22;41759;53.330;6.002;2023-11-18T02:19:39;4.00;99.90
55830;DHT22;41759;53.330;6.002;2023-11-18T02:22:08;3.90;99.90
55830;DHT22;41759;53.330;6.002;2023-11-18T02:24:39;4.00;99.90
55830;DHT22;41759;53.330;6.002;2023-11-18T02:27:06;4.00;99.90
55830;DHT22;41759;53.330;6.002;2023-11-18T02:29:37;3.90;99.90
55830;DHT22;41759;53.330;6.002;2023-11-18T02:32:13;4.30;99.90
55830;DHT22;41759;53.330;6.002;2023-11-18T02:34:43;3.00;99.90
55830;DHT22;41759;53.330;6.002;2023-11-18T02:37:14;3.90;99.90
55830;DHT22;41759;53.330;6.002;2023-11-18T02:39:43;3.20;99.90
55830;DHT22;41759;53.330;6.002;2023-11-18T02:42:12;3.80;99.90
55830;DHT22;41759;53.330;6.002;2023-11-18T02:44:39;3.80;99.90
55830;DHT22;41759;53.330;6.002;2023-11-18T02:47:05;3.80;99.90
55830;DHT22;41759;53.330;6.002;2023-11-18T02:49:33;3.80;99.90
55830;DHT22;41759;53.330;6.002;2023-11-18T02:51:59;3.80;99.90
55830;DHT22;41759;53.330;6.002;2023-11-18T02:54:25;3.70;99.90
55830;DHT22;41759;53.330;6.002;2023-11-18T02:56:52;3.70;99.90
55830;DHT22;41759;53.330;6.002;2023-11-18T02:59:18;3.70;99.90
55830;DHT22;41759;53.330;6.002;2023-11-18T03:01:43;3.80;99.90
55830;DHT22;41759;53.330;6.002;2023-11-18T03:04:10;3.80;99.90
55830;DHT22;41759;53.330;6.002;2023-11-18T03:06:36;3.70;99.90
55830;DHT22;41759;53.330;6.002;2023-11-18T03:09:02;3.80;99.90
55830;DHT22;41759;53.330;6.002;2023-11-18T03:11:30;3.80;99.90
55830;DHT22;41759;53.330;6.002;2023-11-18T03:14:00;3.80;99.90
55830;DHT22;41759;53.330;6.002;2023-11-18T03:16:25;2.80;99.90
55830;DHT22;41759;53.330;6.002;2023-11-18T03:18:51;3.90;99.90
55830;DHT22;41759;53.330;6.002;2023-11-18T03:21:17;4.00;99.90
55830;DHT22;41759;53.330;6.002;2023-11-18T03:23:45;3.20;99.90
55830;DHT22;41759;53.330;6.002;2023-11-18T03:26:11;4.00;99.90
55830;DHT22;41759;53.330;6.002;2023-11-18T03:28:37;4.10;99.90
55830;DHT22;41759;53.330;6.002;2023-11-18T03:31:04;4.10;99.90
55830;DHT22;41759;53.330;6.002;2023-11-18T03:33:30;4.30;99.90
55830;DHT22;41759;53.330;6.002;2023-11-18T03:35:56;4.20;99.90
55830;DHT22;41759;53.330;6.002;2023-11-18T03:38:22;5.00;99.90
55830;DHT22;41759;53.330;6.002;2023-11-18T03:40:49;4.30;99.90
55830;DHT22;41759;53.330;6.002;2023-11-18T03:43:15;4.30;99.90
55830;DHT22;41759;53.330;6.002;2023-11-18T03:45:42;4.30;99.90
55830;DHT22;41759;53.330;6.002;2023-11-18T03:48:08;4.30;99.90
55830;DHT22;41759;53.330;6.002;2023-11-18T03:50:34;4.30;99.90
55830;DHT22;41759;53.330;6.002;2023-11-18T03:53:00;4.40;99.90
55830;DHT22;41759;53.330;6.002;2023-11-18T03:55:29;4.40;99.90
55830;DHT22;41759;53.330;6.002;2023-11-18T03:57:56;4.50;99.90
55830;DHT22;41759;53.330;6.002;2023-11-18T04:00:23;4.50;99.90
55830;DHT22;41759;53.330;6.002;2023-11-18T04:02:57;4.50;99.90
55830;DHT22;41759;53.330;6.002;2023-11-18T04:05:23;4.60;99.90
55830;DHT22;41759;53.330;6.002;2023-11-18T04:07:49;4.60;99.90
55830;DHT22;41759;53.330;6.002;2023-11-18T04:10:15;4.60;99.90
55830;DHT22;41759;53.330;6.002;2023-11-18T04:12:44;4.70;99.90
55830;DHT22;41759;53.330;6.002;2023-11-18T04:15:12;4.60;99.90
55830;DHT22;41759;53.330;6.002;2023-11-18T04:17:38;4.60;99.90
55830;DHT22;41759;53.330;6.002;2023-11-18T04:20:04;4.60;99.90
55830;DHT22;41759;53.330;6.002;2023-11-18T04:22:38;4.80;99.90
55830;DHT22;41759;53.330;6.002;2023-11-18T04:25:05;4.70;99.90
55830;DHT22;41759;53.330;6.002;2023-11-18T04:27:32;4.70;99.90
55830;DHT22;41759;53.330;6.002;2023-11-18T04:29:57;4.80;99.90
55830;DHT22;41759;53.330;6.002;2023-11-18T04:32:26;4.80;99.90
55830;DHT22;41759;53.330;6.002;2023-11-18T04:34:52;4.80;99.90
55830;DHT22;41759;53.330;6.002;2023-11-18T04:37:18;4.80;99.90
55830;DHT22;41759;53.330;6.002;2023-11-18T04:39:44;4.80;99.90
55830;DHT22;41759;53.330;6.002;2023-11-18T04:42:10;4.90;99.90
55830;DHT22;41759;53.330;6.002;2023-11-18T04:44:35;4.80;99.90
55830;DHT22;41759;53.330;6.002;2023-11-18T04:47:02;4.90;99.90
55830;DHT22;41759;53.330;6.002;2023-11-18T04:49:28;4.80;99.90
55830;DHT22;41759;53.330;6.002;2023-11-18T04:51:54;4.80;99.90
55830;DHT22;41759;53.330;6.002;2023-11-18T04:54:19;4.90;99.90
55830;DHT22;41759;53.330;6.002;2023-11-18T04:56:45;4.80;99.90
55830;DHT22;41759;53.330;6.002;2023-11-18T04:59:12;4.90;99.90
55830;DHT22;41759;53.330;6.002;2023-11-18T05:01:37;4.90;99.90
55830;DHT22;41759;53.330;6.002;2023-11-18T05:04:03;4.90;99.90
55830;DHT22;41759;53.330;6.002;2023-11-18T05:06:29;4.80;99.90
55830;DHT22;41759;53.330;6.002;2023-11-18T05:08:55;4.90;99.90
55830;DHT22;41759;53.330;6.002;2023-11-18T05:11:21;4.80;99.90
55830;DHT22;41759;53.330;6.002;2023-11-18T05:13:46;4.80;99.90
55830;DHT22;41759;53.330;6.002;2023-11-18T05:16:12;4.90;99.90
55830;DHT22;41759;53.330;6.002;2023-11-18T05:18:39;4.80;99.90
55830;DHT22;41759;53.330;6.002;2023-11-18T05:21:06;4.80;99.90
55830;DHT22;41759;53.330;6.002;2023-11-18T05:23:34;4.80;99.90
55830;DHT22;41759;53.330;6.002;2023-11-18T05:26:01;5.00;99.90
55830;DHT22;41759;53.330;6.002;2023-11-18T05:28:30;4.80;99.90
55830;DHT22;41759;53.330;6.002;2023-11-18T05:30:59;4.80;99.90
55830;DHT22;41759;53.330;6.002;2023-11-18T05:33:30;4.80;99.90
55830;DHT22;41759;53.330;6.002;2023-11-18T05:36:00;4.90;99.90
55830;DHT22;41759;53.330;6.002;2023-11-18T05:38:25;4.90;99.90
55830;DHT22;41759;53.330;6.002;2023-11-18T05:40:53;6.10;99.90
55830;DHT22;41759;53.330;6.002;2023-11-18T05:43:26;4.80;99.90
55830;DHT22;41759;53.330;6.002;2023-11-18T05:45:55;4.80;99.90
55830;DHT22;41759;53.330;6.002;2023-11-18T05:48:42;6.10;99.90
55830;DHT22;41759;53.330;6.002;2023-11-18T05:51:08;4.80;99.90
55830;DHT22;41759;53.330;6.002;2023-11-18T05:53:34;4.80;99.90
55830;DHT22;41759;53.330;6.002;2023-11-18T05:56:01;4.70;99.90
55830;DHT22;41759;53.330;6.002;2023-11-18T05:58:28;3.60;99.90
55830;DHT22;41759;53.330;6.002;2023-11-18T06:00:54;4.80;99.90
55830;DHT22;41759;53.330;6.002;2023-11-18T06:03:20;4.60;99.90
55830;DHT22;41759;53.330;6.002;2023-11-18T06:05:45;4.80;99.90
55830;DHT22;41759;53.330;6.002;2023-11-18T06:08:12;4.80;99.90
55830;DHT22;41759;53.330;6.002;2023-11-18T06:10:38;4.80;99.90
55830;DHT22;41759;53.330;6.002;2023-11-18T06:13:04;4.80;99.90
55830;DHT22;41759;53.330;6.002;2023-11-18T06:15:29;4.80;99.90
55830;DHT22;41759;53.330;6.002;2023-11-18T06:17:56;4.90;99.90
55830;DHT22;41759;53.330;6.002;2023-11-18T06:20:22;4.90;99.90
55830;DHT22;41759;53.330;6.002;2023-11-18T06:22:49;4.90;99.90
55830;DHT22;41759;53.330;6.002;2023-11-18T06:25:15;4.20;99.90
55830;DHT22;41759;53.330;6.002;2023-11-18T06:27:44;4.90;99.90
55830;DHT22;41759;53.330;6.002;2023-11-18T06:30:12;4.80;99.90
55830;DHT22;41759;53.330;6.002;2023-11-18T06:32:38;4.80;99.90
55830;DHT22;41759;53.330;6.002;2023-11-18T06:35:05;4.90;99.90
55830;DHT22;41759;53.330;6.002;2023-11-18T06:37:34;4.90;99.90
55830;DHT22;41759;53.330;6.002;2023-11-18T06:40:00;4.90;99.90
55830;DHT22;41759;53.330;6.002;2023-11-18T06:42:26;4.80;99.90
55830;DHT22;41759;53.330;6.002;2023-11-18T06:44:52;4.90;99.90
55830;DHT22;41759;53.330;6.002;2023-11-18T06:47:18;4.90;99.90
55830;DHT22;41759;53.330;6.002;2023-11-18T06:49:47;4.90;99.90
55830;DHT22;41759;53.330;6.002;2023-11-18T06:52:13;4.90;99.90
55830;DHT22;41759;53.330;6.002;2023-11-18T06:54:42;4.80;99.90
55830;DHT22;41759;53.330;6.002;2023-11-18T06:57:08;4.80;99.90
55830;DHT22;41759;53.330;6.002;2023-11-18T06:59:34;4.80;99.90
55830;DHT22;41759;53.330;6.002;2023-11-18T07:02:00;4.80;99.90
55830;DHT22;41759;53.330;6.002;2023-11-18T07:04:26;4.80;99.90
55830;DHT22;41759;53.330;6.002;2023-11-18T07:06:51;4.70;99.90
55830;DHT22;41759;53.330;6.002;2023-11-18T07:09:17;4.80;99.90
55830;DHT22;41759;53.330;6.002;2023-11-18T07:11:46;4.80;99.90
55830;DHT22;41759;53.330;6.002;2023-11-18T07:14:13;4.90;99.90
55830;DHT22;41759;53.330;6.002;2023-11-18T07:16:41;4.80;99.90
55830;DHT22;41759;53.330;6.002;2023-11-18T07:19:07;4.80;99.90
55830;DHT22;41759;53.330;6.002;2023-11-18T07:21:34;4.80;99.90
55830;DHT22;41759;53.330;6.002;2023-11-18T07:24:00;4.90;99.90
55830;DHT22;41759;53.330;6.002;2023-11-18T07:26:27;4.90;99.90
55830;DHT22;41759;53.330;6.002;2023-11-18T07:28:53;4.90;99.90
55830;DHT22;41759;53.330;6.002;2023-11-18T07:31:19;4.90;99.90
55830;DHT22;41759;53.330;6.002;2023-11-18T07:33:45;4.90;99.90
55830;DHT22;41759;53.330;6.002;2023-11-18T07:36:18;4.90;99.90
55830;DHT22;41759;53.330;6.002;2023-11-18T07:38:46;4.90;99.90
55830;DHT22;41759;53.330;6.002;2023-11-18T07:41:12;4.90;99.90
55830;DHT22;41759;53.330;6.002;2023-11-18T07:43:55;5.00;99.90
55830;DHT22;41759;53.330;6.002;2023-11-18T07:46:22;5.00;99.90
55830;DHT22;41759;53.330;6.002;2023-11-18T07:48:51;5.00;99.90
55830;DHT22;41759;53.330;6.002;2023-11-18T07:51:18;5.00;99.90
55830;DHT22;41759;53.330;6.002;2023-11-18T07:53:49;5.00;99.90
55830;DHT22;41759;53.330;6.002;2023-11-18T07:56:15;5.00;99.90
55830;DHT22;41759;53.330;6.002;2023-11-18T07:58:44;5.10;99.90
55830;DHT22;41759;53.330;6.002;2023-11-18T08:01:13;5.10;99.90
55830;DHT22;41759;53.330;6.002;2023-11-18T08:03:42;5.10;99.90
55830;DHT22;41759;53.330;6.002;2023-11-18T08:06:08;5.10;99.90
55830;DHT22;41759;53.330;6.002;2023-11-18T08:08:36;5.20;99.90
55830;DHT22;41759;53.330;6.002;2023-11-18T08:11:09;5.20;99.90
55830;DHT22;41759;53.330;6.002;2023-11-18T08:13:35;5.30;99.90
55830;DHT22;41759;53.330;6.002;2023-11-18T08:16:02;5.30;99.90
55830;DHT22;41759;53.330;6.002;2023-11-18T08:18:28;5.30;99.90
55830;DHT22;41759;53.330;6.002;2023-11-18T08:20:57;5.30;99.90
55830;DHT22;41759;53.330;6.002;2023-11-18T08:23:25;5.30;99.90
55830;DHT22;41759;53.330;6.002;2023-11-18T08:25:54;5.30;99.90
55830;DHT22;41759;53.330;6.002;2023-11-18T08:28:21;5.30;99.90
55830;DHT22;41759;53.330;6.002;2023-11-18T08:30:47;5.40;99.90
55830;DHT22;41759;53.330;6.002;2023-11-18T08:33:14;5.40;99.90
55830;DHT22;41759;53.330;6.002;2023-11-18T08:35:40;5.40;99.90
55830;DHT22;41759;53.330;6.002;2023-11-18T08:38:07;5.40;99.90
55830;DHT22;41759;53.330;6.002;2023-11-18T08:40:33;4.30;99.90
55830;DHT22;41759;53.330;6.002;2023-11-18T08:43:00;5.40;99.90
55830;DHT22;41759;53.330;6.002;2023-11-18T08:45:27;4.10;99.90
55830;DHT22;41759;53.330;6.002;2023-11-18T08:48:02;5.50;99.90
55830;DHT22;41759;53.330;6.002;2023-11-18T08:50:29;5.50;99.90
55830;DHT22;41759;53.330;6.002;2023-11-18T08:52:56;5.50;99.90
55830;DHT22;41759;53.330;6.002;2023-11-18T08:55:31;5.50;99.90
55830;DHT22;41759;53.330;6.002;2023-11-18T08:58:16;5.50;99.90
55830;DHT22;41759;53.330;6.002;2023-11-18T09:00:51;5.60;99.90
55830;DHT22;41759;53.330;6.002;2023-11-18T09:03:19;5.60;99.90
55830;DHT22;41759;53.330;6.002;2023-11-18T09:05:55;5.60;99.90
55830;DHT22;41759;53.330;6.002;2023-11-18T09:08:29;5.60;99.90
55830;DHT22;41759;53.330;6.002;2023-11-18T09:10:58;5.70;99.90
55830;DHT22;41759;53.330;6.002;2023-11-18T09:13:26;5.70;99.90
55830;DHT22;41759;53.330;6.002;2023-11-18T09:16:05;5.70;99.90
55830;DHT22;41759;53.330;6.002;2023-11-18T09:18:40;5.70;99.90
55830;DHT22;41759;53.330;6.002;2023-11-18T09:21:07;5.70;99.90
55830;DHT22;41759;53.330;6.002;2023-11-18T09:23:34;5.80;99.90
55830;DHT22;41759;53.330;6.002;2023-11-18T09:26:01;5.80;99.90
55830;DHT22;41759;53.330;6.002;2023-11-18T09:28:28;5.80;99.90
55830;DHT22;41759;53.330;6.002;2023-11-18T09:30:55;5.80;99.90
55830;DHT22;41759;53.330;6.002;2023-11-18T09:33:26;5.80;99.90
55830;DHT22;41759;53.330;6.002;2023-11-18T09:36:01;5.90;99.90
55830;DHT22;41759;53.330;6.002;2023-11-18T09:40:54;5.90;99.90
55830;DHT22;41759;53.330;6.002;2023-11-18T09:43:20;5.90;99.90
55830;DHT22;41759;53.330;6.002;2023-11-18T09:45:49;5.90;99.90
55830;DHT22;41759;53.330;6.002;2023-11-18T09:48:18;5.90;99.90
55830;DHT22;41759;53.330;6.002;2023-11-18T09:50:52;6.00;99.90
55830;DHT22;41759;53.330;6.002;2023-11-18T09:53:19;6.00;99.90
55830;DHT22;41759;53.330;6.002;2023-11-18T09:55:50;6.00;99.90
55830;DHT22;41759;53.330;6.002;2023-11-18T09:58:21;6.00;99.90
55830;DHT22;41759;53.330;6.002;2023-11-18T10:00:50;6.00;99.90
55830;DHT22;41759;53.330;6.002;2023-11-18T10:03:21;6.00;99.90
55830;DHT22;41759;53.330;6.002;2023-11-18T10:05:49;6.00;99.90
55830;DHT22;41759;53.330;6.002;2023-11-18T10:08:20;6.50;99.90
55830;DHT22;41759;53.330;6.002;2023-11-18T10:10:51;6.00;99.90
55830;DHT22;41759;53.330;6.002;2023-11-18T10:13:19;6.00;99.90
55830;DHT22;41759;53.330;6.002;2023-11-18T10:15:50;6.00;99.90
55830;DHT22;41759;53.330;6.002;2023-11-18T10:18:18;6.10;99.90
55830;DHT22;41759;53.330;6.002;2023-11-18T10:20:51;6.00;99.90
55830;DHT22;41759;53.330;6.002;2023-11-18T10:23:18;6.00;99.90
55830;DHT22;41759;53.330;6.002;2023-11-18T10:25:45;6.10;99.90
55830;DHT22;41759;53.330;6.002;2023-11-18T10:28:32;6.10;99.90
55830;DHT22;41759;53.330;6.002;2023-11-18T10:31:02;6.10;99.90
55830;DHT22;41759;53.330;6.002;2023-11-18T10:33:32;6.10;99.90
55830;DHT22;41759;53.330;6.002;2023-11-18T10:35:59;6.00;99.90
55830;DHT22;41759;53.330;6.002;2023-11-18T10:38:29;6.10;99.90
55830;DHT22;41759;53.330;6.002;2023-11-18T10:40:57;6.10;99.90
55830;DHT22;41759;53.330;6.002;2023-11-18T10:43:24;6.00;99.90
55830;DHT22;41759;53.330;6.002;2023-11-18T10:45:51;6.00;99.90
55830;DHT22;41759;53.330;6.002;2023-11-18T10:48:18;6.10;99.90
55830;DHT22;41759;53.330;6.002;2023-11-18T10:50:47;6.80;99.90
55830;DHT22;41759;53.330;6.002;2023-11-18T10:53:14;6.10;99.90
55830;DHT22;41759;53.330;6.002;2023-11-18T10:55:41;6.10;99.90
55830;DHT22;41759;53.330;6.002;2023-11-18T10:58:07;6.20;99.90
55830;DHT22;41759;53.330;6.002;2023-11-18T11:00:47;6.20;99.90
55830;DHT22;41759;53.330;6.002;2023-11-18T11:03:19;6.20;99.90
55830;DHT22;41759;53.330;6.002;2023-11-18T11:05:45;6.20;99.90
55830;DHT22;41759;53.330;6.002;2023-11-18T11:08:14;6.30;99.90
55830;DHT22;41759;53.330;6.002;2023-11-18T11:10:40;6.20;99.90
55830;DHT22;41759;53.330;6.002;2023-11-18T11:13:09;6.20;99.90
55830;DHT22;41759;53.330;6.002;2023-11-18T11:15:43;6.20;99.90
55830;DHT22;41759;53.330;6.002;2023-11-18T11:18:21;6.20;99.90
55830;DHT22;41759;53.330;6.002;2023-11-18T11:21:15;6.20;99.90
55830;DHT22;41759;53.330;6.002;2023-11-18T11:26:57;6.20;99.90
55830;DHT22;41759;53.330;6.002;2023-11-18T11:35:18;6.20;99.90
55830;DHT22;41759;53.330;6.002;2023-11-18T11:37:46;6.20;99.90
55830;DHT22;41759;53.330;6.002;2023-11-18T11:40:14;6.20;99.90
55830;DHT22;41759;53.330;6.002;2023-11-18T11:42:49;6.20;99.90
55830;DHT22;41759;53.330;6.002;2023-11-18T11:45:24;6.20;99.90
55830;DHT22;41759;53.330;6.002;2023-11-18T11:47:56;6.20;99.90
55830;DHT22;41759;53.330;6.002;2023-11-18T11:54:02;6.20;99.90
55830;DHT22;41759;53.330;6.002;2023-11-18T11:56:49;6.20;99.90
55830;DHT22;41759;53.330;6.002;2023-11-18T11:59:18;6.20;99.90
55830;DHT22;41759;53.330;6.002;2023-11-18T12:02:04;6.20;99.90
55830;DHT22;41759;53.330;6.002;2023-11-18T12:04:34;6.10;99.90
55830;DHT22;41759;53.330;6.002;2023-11-18T12:07:09;6.10;99.90
55830;DHT22;41759;53.330;6.002;2023-11-18T12:09:36;6.20;99.90
55830;DHT22;41759;53.330;6.002;2023-11-18T12:12:05;6.10;99.90
55830;DHT22;41759;53.330;6.002;2023-11-18T12:17:18;6.10;99.90
55830;DHT22;41759;53.330;6.002;2023-11-18T12:19:48;6.10;99.90
55830;DHT22;41759;53.330;6.002;2023-11-18T12:22:19;6.20;99.90
55830;DHT22;41759;53.330;6.002;2023-11-18T12:27:45;6.20;99.90
55830;DHT22;41759;53.330;6.002;2023-11-18T12:33:05;6.10;99.90
55830;DHT22;41759;53.330;6.002;2023-11-18T12:38:59;6.10;99.90
55830;DHT22;41759;53.330;6.002;2023-11-18T12:41:37;6.10;99.90
55830;DHT22;41759;53.330;6.002;2023-11-18T12:47:02;6.10;99.90
55830;DHT22;41759;53.330;6.002;2023-11-18T12:49:47;6.10;99.90
55830;DHT22;41759;53.330;6.002;2023-11-18T12:52:21;6.20;99.90
55830;DHT22;41759;53.330;6.002;2023-11-18T12:54:50;6.10;99.90
55830;DHT22;41759;53.330;6.002;2023-11-18T12:57:27;6.10;99.90
55830;DHT22;41759;53.330;6.002;2023-11-18T12:59:57;6.20;99.90
55830;DHT22;41759;53.330;6.002;2023-11-18T13:02:23;6.00;99.90
55830;DHT22;41759;53.330;6.002;2023-11-18T13:04:49;6.00;99.90
55830;DHT22;41759;53.330;6.002;2023-11-18T13:07:16;5.40;99.90
55830;DHT22;41759;53.330;6.002;2023-11-18T13:09:50;6.00;99.90
55830;DHT22;41759;53.330;6.002;2023-11-18T13:12:17;6.00;99.90
55830;DHT22;41759;53.330;6.002;2023-11-18T13:14:46;6.00;99.90
55830;DHT22;41759;53.330;6.002;2023-11-18T13:17:14;6.00;99.90
55830;DHT22;41759;53.330;6.002;2023-11-18T13:19:44;6.00;99.90
55830;DHT22;41759;53.330;6.002;2023-11-18T13:22:13;6.00;99.90
55830;DHT22;41759;53.330;6.002;2023-11-18T13:24:43;6.30;99.90
55830;DHT22;41759;53.330;6.002;2023-11-18T13:27:16;6.00;99.90
55830;DHT22;41759;53.330;6.002;2023-11-18T13:29:47;6.10;99.90
55830;DHT22;41759;53.330;6.002;2023-11-18T13:32:18;6.00;99.90
55830;DHT22;41759;53.330;6.002;2023-11-18T13:34:48;6.10;99.90
55830;DHT22;41759;53.330;6.002;2023-11-18T13:37:14;6.10;99.90
55830;DHT22;41759;53.330;6.002;2023-11-18T13:39:43;6.10;99.90
55830;DHT22;41759;53.330;6.002;2023-11-18T13:42:23;6.10;99.90
55830;DHT22;41759;53.330;6.002;2023-11-18T13:44:50;6.10;99.90
55830;DHT22;41759;53.330;6.002;2023-11-18T13:47:20;6.00;99.90
55830;DHT22;41759;53.330;6.002;2023-11-18T13:49:48;6.10;99.90
55830;DHT22;41759;53.330;6.002;2023-11-18T13:52:15;6.00;99.90
55830;DHT22;41759;53.330;6.002;2023-11-18T13:54:44;6.10;99.90
55830;DHT22;41759;53.330;6.002;2023-11-18T13:57:21;6.10;99.90
55830;DHT22;41759;53.330;6.002;2023-11-18T13:59:51;6.00;99.90
55830;DHT22;41759;53.330;6.002;2023-11-18T14:02:17;6.00;99.90
55830;DHT22;41759;53.330;6.002;2023-11-18T14:04:43;6.00;99.90
55830;DHT22;41759;53.330;6.002;2023-11-18T14:07:13;6.10;99.90
55830;DHT22;41759;53.330;6.002;2023-11-18T14:09:45;6.10;99.90
55830;DHT22;41759;53.330;6.002;2023-11-18T14:12:12;6.00;99.90
55830;DHT22;41759;53.330;6.002;2023-11-18T14:14:39;6.30;99.90
55830;DHT22;41759;53.330;6.002;2023-11-18T14:17:08;6.10;99.90
55830;DHT22;41759;53.330;6.002;2023-11-18T14:19:36;6.10;99.90
55830;DHT22;41759;53.330;6.002;2023-11-18T14:22:05;6.10;99.90
55830;DHT22;41759;53.330;6.002;2023-11-18T14:24:35;6.10;99.90
55830;DHT22;41759;53.330;6.002;2023-11-18T14:27:01;6.10;99.90
55830;DHT22;41759;53.330;6.002;2023-11-18T14:29:27;6.20;99.90
55830;DHT22;41759;53.330;6.002;2023-11-18T14:31:56;6.10;99.90
55830;DHT22;41759;53.330;6.002;2023-11-18T14:34:21;6.20;99.90
55830;DHT22;41759;53.330;6.002;2023-11-18T14:36:47;6.10;99.90
55830;DHT22;41759;53.330;6.002;2023-11-18T14:39:14;6.20;99.90
55830;DHT22;41759;53.330;6.002;2023-11-18T14:41:46;6.20;99.90
55830;DHT22;41759;53.330;6.002;2023-11-18T14:44:12;6.20;99.90
55830;DHT22;41759;53.330;6.002;2023-11-18T14:46:37;6.20;99.90
55830;DHT22;41759;53.330;6.002;2023-11-18T14:49:04;6.20;99.90
55830;DHT22;41759;53.330;6.002;2023-11-18T14:51:35;6.20;99.90
55830;DHT22;41759;53.330;6.002;2023-11-18T14:54:01;6.30;99.90
55830;DHT22;41759;53.330;6.002;2023-11-18T14:56:27;6.30;99.90
55830;DHT22;41759;53.330;6.002;2023-11-18T14:58:53;6.30;99.90
55830;DHT22;41759;53.330;6.002;2023-11-18T15:01:19;6.30;99.90
55830;DHT22;41759;53.330;6.002;2023-11-18T15:03:45;6.20;99.90
55830;DHT22;41759;53.330;6.002;2023-11-18T15:06:11;6.30;99.90
55830;DHT22;41759;53.330;6.002;2023-11-18T15:08:38;6.30;99.90
55830;DHT22;41759;53.330;6.002;2023-11-18T15:11:06;6.40;99.90
55830;DHT22;41759;53.330;6.002;2023-11-18T15:13:34;6.30;99.90
55830;DHT22;41759;53.330;6.002;2023-11-18T15:16:00;6.40;99.90
55830;DHT22;41759;53.330;6.002;2023-11-18T15:18:26;6.30;99.90
55830;DHT22;41759;53.330;6.002;2023-11-18T15:20:53;6.30;99.90
55830;DHT22;41759;53.330;6.002;2023-11-18T15:23:19;6.30;99.90
55830;DHT22;41759;53.330;6.002;2023-11-18T15:25:48;6.30;99.90
55830;DHT22;41759;53.330;6.002;2023-11-18T15:28:17;7.30;99.90
55830;DHT22;41759;53.330;6.002;2023-11-18T15:30:44;7.40;99.90
55830;DHT22;41759;53.330;6.002;2023-11-18T15:33:10;6.30;99.90
55830;DHT22;41759;53.330;6.002;2023-11-18T15:35:39;6.30;99.90
55830;DHT22;41759;53.330;6.002;2023-11-18T15:38:08;6.30;99.90
55830;DHT22;41759;53.330;6.002;2023-11-18T15:40:37;6.40;99.90
55830;DHT22;41759;53.330;6.002;2023-11-18T15:43:04;6.40;99.90
55830;DHT22;41759;53.330;6.002;2023-11-18T15:45:33;6.40;99.90
55830;DHT22;41759;53.330;6.002;2023-11-18T15:48:00;6.50;99.90
55830;DHT22;41759;53.330;6.002;2023-11-18T15:50:26;6.40;99.90
55830;DHT22;41759;53.330;6.002;2023-11-18T15:52:55;6.40;99.90
55830;DHT22;41759;53.330;6.002;2023-11-18T15:55:22;6.40;99.90
55830;DHT22;41759;53.330;6.002;2023-11-18T15:57:51;6.40;99.90
55830;DHT22;41759;53.330;6.002;2023-11-18T16:00:27;6.40;99.90
55830;DHT22;41759;53.330;6.002;2023-11-18T16:02:58;6.30;99.90
55830;DHT22;41759;53.330;6.002;2023-11-18T16:05:28;6.40;99.90
55830;DHT22;41759;53.330;6.002;2023-11-18T16:07:55;6.30;99.90
55830;DHT22;41759;53.330;6.002;2023-11-18T16:10:23;6.40;99.90
55830;DHT22;41759;53.330;6.002;2023-11-18T16:12:50;6.40;99.90
55830;DHT22;41759;53.330;6.002;2023-11-18T16:15:20;6.40;99.90
55830;DHT22;41759;53.330;6.002;2023-11-18T16:17:48;6.40;99.90
55830;DHT22;41759;53.330;6.002;2023-11-18T16:20:16;6.40;99.90
55830;DHT22;41759;53.330;6.002;2023-11-18T16:22:42;6.40;99.90
55830;DHT22;41759;53.330;6.002;2023-11-18T16:25:16;7.30;99.90